createdAt,value
2017-11-23T00:02:15.861Z,90.33
2017-11-23T00:04:43.398Z,90.23
2017-11-23T00:07:10.899Z,90.26
2017-11-23T00:09:38.440Z,90.29
2017-11-23T00:12:05.962Z,90.44
2017-11-23T00:14:33.473Z,90.42
2017-11-23T00:17:00.992Z,90.38
2017-11-23T00:19:28.477Z,90.52
2017-11-23T00:21:55.978Z,90.66
2017-11-23T00:24:23.500Z,90.72
2017-11-23T00:26:51.037Z,90.72
2017-11-23T00:29:18.534Z,90.76
2017-11-23T00:31:46.100Z,90.94
2017-11-23T00:34:13.637Z,91.19
2017-11-23T00:36:41.134Z,91.06
2017-11-23T00:39:08.628Z,91.21
2017-11-23T00:41:36.149Z,90.96
2017-11-23T00:44:04.033Z,90.95
2017-11-23T00:46:31.520Z,91.04
2017-11-23T00:48:59.141Z,90.96
2017-11-23T00:51:26.636Z,90.90
2017-11-23T00:53:54.141Z,90.91
2017-11-23T00:56:21.812Z,91.03
2017-11-23T00:58:49.305Z,90.98
2017-11-23T01:01:16.793Z,90.87
2017-11-23T01:03:44.336Z,90.99
2017-11-23T01:06:11.824Z,90.98
2017-11-23T01:08:39.318Z,90.99
2017-11-23T01:11:06.879Z,90.89
2017-11-23T01:13:34.363Z,90.72
2017-11-23T01:16:01.857Z,90.68
2017-11-23T01:18:29.381Z,90.62
2017-11-23T01:20:57.720Z,90.68
2017-11-23T01:23:25.280Z,90.67
2017-11-23T01:25:52.806Z,90.75
2017-11-23T01:28:20.293Z,90.81
2017-11-23T01:30:47.820Z,90.65
2017-11-23T01:33:15.309Z,90.69
2017-11-23T01:35:42.798Z,90.71
2017-11-23T01:38:10.320Z,90.76
2017-11-23T01:40:37.819Z,90.77
2017-11-23T01:43:05.320Z,90.87
2017-11-23T01:45:32.849Z,90.95
2017-11-23T01:48:00.355Z,90.81
2017-11-23T01:50:27.883Z,90.61
2017-11-23T01:52:55.394Z,90.66
2017-11-23T01:55:22.933Z,90.62
2017-11-23T01:57:50.446Z,90.56
2017-11-23T02:00:17.947Z,90.57
2017-11-23T02:02:45.503Z,90.42
2017-11-23T02:05:12.990Z,90.44
2017-11-23T02:07:40.481Z,90.30
2017-11-23T02:10:07.997Z,90.15
2017-11-23T02:12:35.508Z,90.08
2017-11-23T02:15:03.024Z,89.95
2017-11-23T02:17:30.516Z,89.65
2017-11-23T02:19:58.000Z,89.48
2017-11-23T02:22:25.548Z,89.39
2017-11-23T02:24:53.033Z,89.24
2017-11-23T02:27:20.529Z,89.09
2017-11-23T02:29:48.055Z,88.95
2017-11-23T02:32:15.536Z,88.74
2017-11-23T02:34:43.029Z,88.63
2017-11-23T02:37:10.562Z,88.45
2017-11-23T02:39:38.053Z,88.18
2017-11-23T02:42:05.550Z,88.01
2017-11-23T02:44:33.108Z,87.90
2017-11-23T02:47:00.601Z,87.79
2017-11-23T02:49:28.091Z,87.91
2017-11-23T02:51:55.618Z,87.94
2017-11-23T02:54:23.108Z,88.01
2017-11-23T02:56:50.602Z,87.90
2017-11-23T02:59:18.149Z,87.87
2017-11-23T03:01:45.704Z,87.90
2017-11-23T03:04:13.204Z,87.97
2017-11-23T03:06:40.712Z,88.04
2017-11-23T03:09:08.232Z,88.09
2017-11-23T03:11:35.721Z,88.18
2017-11-23T03:14:03.211Z,88.14
2017-11-23T03:16:30.736Z,88.03
2017-11-23T03:18:58.227Z,88.02
2017-11-23T03:21:25.707Z,87.88
2017-11-23T03:23:53.237Z,87.76
2017-11-23T03:26:20.725Z,87.67
2017-11-23T03:28:48.221Z,87.66
2017-11-23T03:31:15.730Z,87.74
2017-11-23T03:33:43.215Z,87.75
2017-11-23T03:36:10.760Z,87.71
2017-11-23T03:38:38.285Z,87.65
2017-11-23T03:41:05.794Z,87.67
2017-11-23T03:43:33.321Z,87.57
2017-11-23T03:46:00.808Z,87.53
2017-11-23T03:48:28.300Z,87.40
2017-11-23T03:50:56.433Z,87.34
2017-11-23T03:53:23.967Z,87.15
2017-11-23T03:55:51.455Z,87.20
2017-11-23T03:58:18.946Z,87.07
2017-11-23T04:00:46.465Z,86.93
2017-11-23T04:03:13.952Z,86.70
2017-11-23T04:05:41.528Z,86.55
2017-11-23T04:08:09.097Z,86.57
2017-11-23T04:10:36.591Z,86.49
2017-11-23T04:13:04.113Z,86.48
2017-11-23T04:15:31.592Z,86.33
2017-11-23T04:17:59.088Z,86.20
2017-11-23T04:20:26.625Z,86.01
2017-11-23T04:22:54.150Z,85.88
2017-11-23T04:25:21.664Z,85.78
2017-11-23T04:27:49.220Z,85.44
2017-11-23T04:30:16.715Z,85.29
2017-11-23T04:32:44.205Z,85.09
2017-11-23T04:35:11.738Z,85.06
2017-11-23T04:37:39.225Z,84.84
2017-11-23T04:40:06.750Z,84.78
2017-11-23T04:42:34.246Z,84.42
2017-11-23T04:45:01.741Z,84.21
2017-11-23T04:47:29.276Z,84.26
2017-11-23T04:49:56.774Z,84.04
2017-11-23T04:52:24.270Z,83.98
2017-11-23T04:54:51.908Z,83.61
2017-11-23T04:57:19.391Z,83.58
2017-11-23T04:59:46.881Z,83.60
2017-11-23T05:02:14.392Z,83.49
2017-11-23T05:04:42.025Z,83.25
2017-11-23T05:07:09.513Z,83.25
2017-11-23T05:09:37.049Z,83.35
2017-11-23T05:12:04.571Z,82.93
2017-11-23T05:14:32.064Z,83.06
2017-11-23T05:16:59.549Z,83.00
2017-11-23T05:19:27.082Z,82.86
2017-11-23T05:21:54.576Z,82.87
2017-11-23T05:24:22.064Z,82.81
2017-11-23T05:26:49.657Z,82.56
2017-11-23T05:29:17.197Z,82.49
2017-11-23T05:31:44.683Z,82.54
2017-11-23T05:34:12.224Z,82.09
2017-11-23T05:36:39.746Z,82.14
2017-11-23T05:39:07.236Z,82.09
2017-11-23T05:41:34.720Z,82.02
2017-11-23T05:44:02.236Z,82.07
2017-11-23T05:46:29.746Z,81.92
2017-11-23T05:48:57.240Z,81.77
2017-11-23T05:51:24.757Z,80.84
2017-11-23T05:53:52.249Z,80.84
2017-11-23T05:56:19.741Z,80.70
2017-11-23T05:58:47.332Z,80.57
2017-11-23T06:01:14.825Z,80.83
2017-11-23T06:03:42.355Z,80.58
2017-11-23T06:06:09.854Z,80.48
2017-11-23T06:08:37.369Z,80.41
2017-11-23T06:11:04.881Z,80.49
2017-11-23T06:13:32.400Z,80.60
2017-11-23T06:15:59.876Z,80.69
2017-11-23T06:18:27.361Z,80.50
2017-11-23T06:20:55.261Z,80.61
2017-11-23T06:23:22.836Z,80.60
2017-11-23T06:25:50.345Z,80.72
2017-11-23T06:28:17.876Z,80.93
2017-11-23T06:30:45.361Z,81.30
2017-11-23T06:33:12.912Z,81.57
2017-11-23T06:35:40.425Z,81.66
2017-11-23T06:38:08.155Z,81.58
2017-11-23T06:40:35.656Z,81.75
2017-11-23T06:43:03.142Z,82.02
2017-11-23T06:45:30.666Z,81.62
2017-11-23T06:47:58.158Z,81.42
2017-11-23T06:50:25.641Z,81.39
2017-11-23T06:52:53.197Z,81.43
2017-11-23T06:55:20.698Z,81.37
2017-11-23T06:57:48.185Z,81.25
2017-11-23T07:00:15.853Z,80.88
2017-11-23T07:02:43.346Z,80.60
2017-11-23T07:05:10.867Z,80.39
2017-11-23T07:07:38.474Z,80.27
2017-11-23T07:10:05.956Z,79.67
2017-11-23T07:12:33.574Z,79.33
2017-11-23T07:15:01.133Z,79.43
2017-11-23T07:17:28.713Z,79.18
2017-11-23T07:19:56.198Z,78.84
2017-11-23T07:22:23.713Z,78.30
2017-11-23T07:24:51.245Z,78.14
2017-11-23T07:27:18.744Z,77.73
2017-11-23T07:29:46.229Z,77.52
2017-11-23T07:32:13.854Z,77.28
2017-11-23T07:34:41.407Z,77.00
2017-11-23T07:37:08.930Z,76.35
2017-11-23T07:39:36.520Z,76.42
2017-11-23T07:42:04.002Z,76.15
2017-11-23T07:44:31.509Z,75.42
2017-11-23T07:46:59.018Z,75.37
2017-11-23T07:49:26.559Z,75.36
2017-11-23T07:51:54.122Z,74.80
2017-11-23T07:54:21.620Z,74.56
2017-11-23T07:56:49.161Z,74.12
2017-11-23T07:59:16.694Z,74.21
2017-11-23T08:01:44.250Z,73.91
2017-11-23T08:04:11.815Z,73.68
2017-11-23T08:06:39.385Z,73.25
2017-11-23T08:09:06.930Z,73.12
2017-11-23T08:11:34.425Z,73.07
2017-11-23T08:14:01.912Z,72.88
2017-11-23T08:16:29.427Z,72.53
2017-11-23T08:18:56.916Z,72.69
2017-11-23T08:21:25.074Z,72.56
2017-11-23T08:23:52.752Z,72.50
2017-11-23T08:26:20.245Z,72.53
2017-11-23T08:28:47.782Z,72.31
2017-11-23T08:31:15.264Z,72.38
2017-11-23T08:33:42.767Z,72.37
2017-11-23T08:36:10.408Z,72.55
2017-11-23T08:38:37.979Z,72.50
2017-11-23T08:41:05.524Z,72.45
2017-11-23T08:43:33.011Z,72.29
2017-11-23T08:46:00.496Z,72.55
2017-11-23T08:48:28.027Z,72.24
2017-11-23T08:50:55.513Z,72.27
2017-11-23T08:53:23.072Z,72.12
2017-11-23T08:55:50.588Z,71.66
2017-11-23T08:58:18.096Z,71.46
2017-11-23T09:00:45.618Z,71.37
2017-11-23T09:03:13.145Z,71.18
2017-11-23T09:05:44.188Z,70.92
2017-11-23T09:08:11.669Z,70.48
2017-11-23T09:10:39.293Z,70.49
2017-11-23T09:13:08.604Z,70.71
2017-11-23T09:15:36.089Z,70.51
2017-11-23T09:18:03.704Z,70.27
2017-11-23T09:20:31.391Z,70.40
2017-11-23T09:22:58.925Z,70.24
2017-11-23T09:25:26.412Z,70.26
2017-11-23T09:27:53.966Z,70.29
2017-11-23T09:30:21.479Z,70.42
2017-11-23T09:32:49.077Z,70.16
2017-11-23T09:35:16.564Z,70.22
2017-11-23T09:37:44.182Z,69.79
2017-11-23T09:40:11.704Z,69.50
2017-11-23T09:42:39.197Z,69.20
2017-11-23T09:45:06.756Z,69.10
2017-11-23T09:47:34.322Z,69.02
2017-11-23T09:50:01.817Z,68.04
2017-11-23T09:52:29.302Z,67.74
2017-11-23T09:54:56.871Z,67.65
2017-11-23T09:57:24.473Z,66.88
2017-11-23T09:59:51.960Z,66.88
2017-11-23T10:02:19.488Z,65.89
2017-11-23T10:04:46.976Z,65.85
2017-11-23T10:07:14.461Z,65.56
2017-11-23T10:09:41.985Z,65.83
2017-11-23T10:12:09.524Z,66.07
2017-11-23T10:14:42.813Z,65.70
2017-11-23T10:17:10.297Z,66.01
2017-11-23T10:19:37.782Z,65.31
2017-11-23T10:22:05.310Z,65.28
2017-11-23T10:24:32.807Z,64.98
2017-11-23T10:27:00.305Z,64.77
2017-11-23T10:29:27.826Z,64.46
2017-11-23T10:31:55.320Z,63.82
2017-11-23T10:34:23.712Z,64.11
2017-11-23T10:36:51.215Z,64.00
2017-11-23T10:39:18.716Z,63.79
2017-11-23T10:41:46.243Z,63.87
2017-11-23T10:44:13.744Z,64.08
2017-11-23T10:46:41.289Z,64.27
2017-11-23T10:49:08.829Z,64.12
2017-11-23T10:51:36.337Z,64.35
2017-11-23T10:54:03.853Z,64.16
2017-11-23T10:56:31.367Z,64.13
2017-11-23T10:58:58.853Z,63.91
2017-11-23T11:01:26.427Z,64.08
2017-11-23T11:03:53.942Z,64.02
2017-11-23T11:06:21.426Z,63.90
2017-11-23T11:08:48.963Z,63.56
2017-11-23T11:11:16.474Z,63.60
2017-11-23T11:13:44.030Z,63.46
2017-11-23T11:16:11.562Z,63.17
2017-11-23T11:18:39.071Z,63.39
2017-11-23T11:21:06.578Z,62.96
2017-11-23T11:23:34.150Z,62.77
2017-11-23T11:26:01.727Z,63.24
2017-11-23T11:28:29.258Z,63.15
2017-11-23T11:30:57.445Z,62.98
2017-11-23T11:33:24.937Z,63.01
2017-11-23T11:35:52.477Z,62.92
2017-11-23T11:38:20.005Z,63.12
2017-11-23T11:40:47.569Z,63.09
2017-11-23T11:43:15.084Z,63.14
2017-11-23T11:45:42.572Z,63.04
2017-11-23T11:50:43.937Z,62.95
2017-11-23T11:53:11.460Z,63.31
2017-11-23T11:55:38.995Z,63.04
2017-11-23T11:58:06.512Z,62.85
2017-11-23T12:00:34.039Z,63.04
2017-11-23T12:03:01.569Z,63.04
2017-11-23T12:05:29.069Z,62.90
2017-11-23T12:07:56.642Z,62.54
2017-11-23T12:10:24.132Z,62.41
2017-11-23T12:12:51.628Z,62.75
2017-11-23T12:15:31.003Z,62.53
2017-11-23T12:21:13.198Z,62.52
2017-11-23T12:23:44.141Z,62.61
2017-11-23T12:26:11.645Z,62.65
2017-11-23T12:28:50.929Z,62.27
2017-11-23T12:31:18.420Z,62.56
2017-11-23T12:33:46.093Z,62.42
2017-11-23T12:36:13.581Z,62.55
2017-11-23T12:38:41.076Z,62.33
2017-11-23T12:41:08.672Z,62.78
2017-11-23T12:43:36.196Z,62.54
2017-11-23T12:46:03.689Z,62.93
2017-11-23T12:48:31.213Z,62.83
2017-11-23T12:50:58.708Z,63.07
2017-11-23T12:53:26.268Z,62.94
2017-11-23T12:55:53.772Z,62.82
2017-11-23T12:58:21.276Z,62.80
2017-11-23T13:00:48.801Z,63.07
2017-11-23T13:03:16.298Z,63.41
2017-11-23T13:05:43.828Z,63.24
2017-11-23T13:08:11.327Z,63.50
2017-11-23T13:10:38.817Z,63.43
2017-11-23T13:13:06.360Z,63.33
2017-11-23T13:15:33.849Z,63.21
2017-11-23T13:18:01.341Z,63.28
2017-11-23T13:20:29.779Z,63.21
2017-11-23T13:22:57.282Z,63.82
2017-11-23T13:25:24.776Z,63.88
2017-11-23T13:27:52.344Z,63.55
2017-11-23T13:30:19.838Z,64.04
2017-11-23T13:32:47.368Z,63.75
2017-11-23T13:35:14.865Z,63.75
2017-11-23T13:37:42.365Z,63.54
2017-11-23T13:40:09.895Z,63.65
2017-11-23T13:42:37.421Z,63.64
2017-11-23T13:45:04.920Z,63.47
2017-11-23T13:47:32.419Z,63.43
2017-11-23T13:49:59.949Z,63.16
2017-11-23T13:52:27.512Z,63.23
2017-11-23T13:54:55.031Z,63.37
2017-11-23T13:57:22.564Z,62.88
2017-11-23T13:59:50.088Z,63.13
2017-11-23T14:02:17.594Z,63.16
2017-11-23T14:04:45.195Z,63.17
2017-11-23T14:07:12.685Z,63.22
2017-11-23T14:09:40.200Z,63.15
2017-11-23T14:12:07.974Z,63.23
2017-11-23T14:14:35.467Z,62.92
2017-11-23T14:17:02.965Z,63.06
2017-11-23T14:19:30.505Z,62.91
2017-11-23T14:21:58.035Z,62.94
2017-11-23T14:24:25.536Z,62.99
2017-11-23T14:26:53.033Z,62.77
2017-11-23T14:29:20.558Z,62.80
2017-11-23T14:31:48.049Z,62.79
2017-11-23T14:34:15.583Z,62.71
2017-11-23T14:36:43.139Z,62.47
2017-11-23T14:39:10.718Z,62.37
2017-11-23T14:41:38.201Z,62.49
2017-11-23T14:44:05.722Z,62.58
2017-11-23T14:46:33.261Z,62.80
2017-11-23T14:49:00.847Z,63.06
2017-11-23T14:51:28.349Z,63.32
2017-11-23T14:56:29.753Z,63.56
2017-11-23T14:58:57.269Z,64.17
2017-11-23T15:01:24.798Z,64.32
2017-11-23T15:03:52.289Z,64.74
2017-11-23T15:06:19.898Z,64.83
2017-11-23T15:08:47.525Z,64.50
2017-11-23T15:11:15.024Z,64.78
2017-11-23T15:13:42.578Z,64.83
2017-11-23T15:16:10.068Z,64.76
2017-11-23T15:18:37.562Z,65.01
2017-11-23T15:21:05.112Z,65.08
2017-11-23T15:23:32.622Z,65.01
2017-11-23T15:26:00.136Z,65.41
2017-11-23T15:28:27.664Z,65.48
2017-11-23T15:30:55.186Z,65.79
2017-11-23T15:33:22.680Z,66.19
2017-11-23T15:35:50.198Z,66.20
2017-11-23T15:38:17.698Z,66.50
2017-11-23T15:40:45.250Z,66.57
2017-11-23T15:43:12.771Z,66.52
2017-11-23T15:45:40.273Z,66.58
2017-11-23T15:48:07.844Z,66.75
2017-11-23T15:50:35.332Z,67.12
2017-11-23T15:53:02.838Z,67.36
2017-11-23T15:55:30.353Z,67.26
2017-11-23T15:57:57.849Z,67.40
2017-11-23T16:00:25.382Z,67.37
2017-11-23T16:02:52.963Z,67.47
2017-11-23T16:05:20.499Z,67.66
2017-11-23T16:07:47.985Z,67.96
2017-11-23T16:10:15.512Z,67.96
2017-11-23T16:12:43.003Z,67.97
2017-11-23T16:15:10.510Z,67.66
2017-11-23T16:17:38.049Z,67.78
2017-11-23T16:20:05.541Z,67.46
2017-11-23T16:22:33.079Z,67.81
2017-11-23T16:25:00.600Z,67.93
2017-11-23T16:27:28.099Z,68.13
2017-11-23T16:29:55.629Z,68.23
2017-11-23T16:32:23.163Z,68.25
2017-11-23T16:34:50.681Z,68.02
2017-11-23T16:37:34.009Z,68.21
2017-11-23T16:40:02.368Z,68.19
2017-11-23T16:42:29.860Z,68.25
2017-11-23T16:48:06.236Z,68.61
2017-11-23T16:50:49.530Z,68.92
2017-11-23T16:53:22.586Z,69.12
2017-11-23T16:55:55.581Z,69.27
2017-11-23T17:01:34.075Z,69.80
2017-11-23T17:07:08.493Z,69.63
2017-11-23T17:09:37.589Z,69.80
2017-11-23T17:15:17.094Z,69.81
2017-11-23T17:18:04.067Z,69.68
2017-11-23T17:20:31.588Z,69.64
2017-11-23T17:22:59.108Z,69.74
2017-11-23T17:25:26.608Z,69.71
2017-11-23T17:27:54.151Z,69.42
2017-11-23T17:30:21.684Z,69.21
2017-11-23T17:32:49.176Z,68.89
2017-11-23T17:35:16.703Z,68.74
2017-11-23T17:37:44.207Z,68.35
2017-11-23T17:40:11.695Z,68.23
2017-11-23T17:42:39.225Z,68.13
2017-11-23T17:45:06.722Z,68.23
2017-11-23T17:47:34.231Z,68.12
2017-11-23T17:50:01.746Z,68.23
2017-11-23T17:52:29.307Z,68.21
2017-11-23T17:54:56.823Z,67.94
2017-11-23T17:57:24.306Z,68.09
2017-11-23T17:59:51.784Z,67.78
2017-11-23T18:02:19.332Z,67.58
2017-11-23T18:04:46.823Z,67.38
2017-11-23T18:07:14.319Z,67.35
2017-11-23T18:09:41.841Z,67.68
2017-11-23T18:12:09.335Z,67.95
2017-11-23T18:14:36.825Z,68.30
2017-11-23T18:17:04.394Z,68.56
2017-11-23T18:19:31.890Z,68.99
2017-11-23T18:21:59.413Z,69.15
2017-11-23T18:24:26.921Z,69.05
2017-11-23T18:26:54.420Z,68.57
2017-11-23T18:29:21.998Z,68.40
2017-11-23T18:31:49.494Z,68.08
2017-11-23T18:34:17.019Z,67.74
2017-11-23T18:36:44.512Z,67.57
2017-11-23T18:39:12.009Z,67.41
2017-11-23T18:41:39.557Z,67.17
2017-11-23T18:44:07.055Z,67.30
2017-11-23T18:46:34.715Z,67.80
2017-11-23T18:49:02.232Z,68.24
2017-11-23T18:51:29.730Z,68.48
2017-11-23T18:53:57.265Z,68.60
2017-11-23T18:56:24.764Z,68.65
2017-11-23T18:58:52.269Z,68.91
2017-11-23T19:01:19.803Z,69.06
2017-11-23T19:03:47.316Z,69.21
2017-11-23T19:06:14.873Z,69.19
2017-11-23T19:08:42.408Z,69.38
2017-11-23T19:11:09.898Z,69.38
2017-11-23T19:13:37.513Z,69.47
2017-11-23T19:16:05.055Z,69.53
2017-11-23T19:18:32.553Z,69.87
2017-11-23T19:21:00.035Z,70.04
2017-11-23T19:23:27.552Z,70.10
2017-11-23T19:25:55.073Z,70.38
2017-11-23T19:28:22.612Z,70.41
2017-11-23T19:30:50.136Z,70.24
2017-11-23T19:33:17.653Z,70.39
2017-11-23T19:35:45.173Z,70.48
2017-11-23T19:38:12.702Z,70.50
2017-11-23T19:40:40.203Z,70.82
2017-11-23T19:43:07.784Z,70.94
2017-11-23T19:45:35.313Z,71.06
2017-11-23T19:48:02.812Z,71.32
2017-11-23T19:50:30.310Z,71.30
2017-11-23T19:52:57.840Z,71.48
2017-11-23T19:55:25.359Z,71.62
2017-11-23T19:57:52.845Z,71.38
2017-11-23T20:00:20.378Z,71.22
2017-11-23T20:02:47.873Z,71.34
2017-11-23T20:05:15.472Z,71.06
2017-11-23T20:07:43.043Z,71.22
2017-11-23T20:10:10.552Z,71.26
2017-11-23T20:12:38.044Z,70.84
2017-11-23T20:15:05.576Z,70.96
2017-11-23T20:17:33.116Z,70.68
2017-11-23T20:20:00.612Z,70.66
2017-11-23T20:22:28.101Z,70.55
2017-11-23T20:24:55.621Z,70.47
2017-11-23T20:27:23.171Z,70.48
2017-11-23T20:29:50.660Z,70.44
2017-11-23T20:32:18.153Z,70.70
2017-11-23T20:34:45.693Z,70.26
2017-11-23T20:37:13.202Z,70.46
2017-11-23T20:39:40.705Z,70.32
2017-11-23T20:42:08.246Z,70.37
2017-11-23T20:44:35.785Z,70.61
2017-11-23T20:47:03.287Z,70.19
2017-11-23T20:49:30.840Z,70.30
2017-11-23T20:51:58.360Z,70.29
2017-11-23T20:54:25.871Z,70.25
2017-11-23T20:56:53.571Z,70.48
2017-11-23T20:59:21.097Z,70.41
2017-11-23T21:01:48.620Z,70.43
2017-11-23T21:04:16.191Z,70.29
2017-11-23T21:06:43.803Z,70.91
2017-11-23T21:09:11.297Z,70.28
2017-11-23T21:11:38.803Z,70.27
2017-11-23T21:14:06.340Z,69.98
2017-11-23T21:16:33.838Z,70.20
2017-11-23T21:19:01.342Z,70.18
2017-11-23T21:21:28.904Z,70.40
2017-11-23T21:23:56.466Z,70.37
2017-11-23T21:26:24.257Z,70.39
2017-11-23T21:28:51.776Z,70.39
2017-11-23T21:31:19.272Z,70.13
2017-11-23T21:33:46.803Z,70.38
2017-11-23T21:36:15.270Z,70.45
2017-11-23T21:38:42.765Z,70.16
2017-11-23T21:41:10.298Z,70.42
2017-11-23T21:43:37.862Z,70.24
2017-11-23T21:46:05.352Z,70.58
2017-11-23T21:48:32.866Z,70.55
2017-11-23T21:51:00.367Z,70.49
2017-11-23T21:53:27.934Z,70.77
2017-11-23T21:55:55.426Z,70.97
2017-11-23T21:58:22.926Z,71.22
2017-11-23T22:00:50.536Z,71.36
2017-11-23T22:03:18.051Z,71.52
2017-11-23T22:05:45.554Z,71.87
2017-11-23T22:08:13.135Z,71.80
2017-11-23T22:10:40.708Z,71.82
2017-11-23T22:13:08.195Z,71.56
2017-11-23T22:15:35.717Z,71.63
2017-11-23T22:18:03.281Z,71.65
2017-11-23T22:20:30.829Z,71.39
2017-11-23T22:22:58.330Z,71.12
2017-11-23T22:25:25.835Z,71.19
2017-11-23T22:27:53.366Z,71.78
2017-11-23T22:30:20.872Z,71.72
2017-11-23T22:32:48.365Z,71.64
2017-11-23T22:35:15.904Z,72.15
2017-11-23T22:37:43.408Z,72.22
2017-11-23T22:40:10.919Z,72.19
2017-11-23T22:42:38.436Z,72.24
2017-11-23T22:45:05.939Z,72.13
2017-11-23T22:47:33.456Z,72.10
2017-11-23T22:50:00.963Z,72.31
2017-11-23T22:52:28.489Z,72.28
2017-11-23T22:54:56.044Z,72.31
2017-11-23T22:57:23.549Z,72.26
2017-11-23T22:59:51.048Z,72.50
2017-11-23T23:02:18.567Z,72.21
2017-11-23T23:04:46.068Z,71.94
2017-11-23T23:07:13.598Z,72.22
2017-11-23T23:09:41.148Z,72.31
2017-11-23T23:12:08.659Z,72.23
2017-11-23T23:14:36.158Z,72.41
2017-11-23T23:17:03.778Z,72.38
2017-11-23T23:19:31.279Z,72.19
2017-11-23T23:21:58.793Z,72.69
2017-11-23T23:24:26.313Z,72.20
2017-11-23T23:26:53.815Z,72.36
2017-11-23T23:29:21.377Z,72.84
2017-11-23T23:31:48.907Z,72.66
2017-11-23T23:34:16.440Z,72.59
2017-11-23T23:36:44.032Z,72.83
2017-11-23T23:39:11.526Z,72.78
2017-11-23T23:41:39.055Z,72.97
2017-11-23T23:44:06.617Z,73.09
2017-11-23T23:46:34.122Z,73.07
2017-11-23T23:49:01.623Z,73.25
2017-11-23T23:51:29.146Z,73.21
2017-11-23T23:53:56.633Z,73.36
2017-11-23T23:56:24.141Z,73.51
2017-11-23T23:58:51.670Z,73.72
